Time;durP1;ratioP1;P1;durP2;ratioP2;P2;SDS_P1;SDS_P2;PMS_P1;PMS_P2;Temp;Humidity;BMP_temperature;BMP_pressure;BME280_temperature;BME280_humidity;BME280_pressure;Samples;Min_cycle;Max_cycle;Signal;HPM_P1;HPM_P2
2022/04/17 00:01:03;;;;;;;;;5.00;4.00;;;;;15.46;41.83;102452.03;2450818;28;44545;-92
2022/04/17 00:02:13;;;;;;;;;4.00;3.25;;;;;15.47;42.29;102455.56;2450551;28;46507;-91
2022/04/17 00:03:24;;;;;;;;;6.00;5.00;;;;;15.45;41.99;102457.41;2461266;27;45469;-92
2022/04/17 00:04:34;;;;;;;;;3.50;3.50;;;;;15.42;42.16;102450.41;2458203;27;45315;-91
2022/04/17 00:05:44;;;;;;;;;4.25;4.25;;;;;15.43;42.24;102448.63;2451228;27;45440;-91
2022/04/17 00:06:56;;;;;;;;;5.00;3.75;;;;;15.41;42.61;102456.59;2452696;27;47979;-91
2022/04/17 00:08:06;;;;;;;;;5.00;3.50;;;;;15.40;42.60;102452.22;2452259;27;45435;-91
2022/04/17 00:09:17;;;;;;;;;3.75;3.75;;;;;15.37;42.29;102447.00;2465850;27;47389;-91
2022/04/17 00:10:27;;;;;;;;;3.00;3.00;;;;;15.36;42.65;102448.75;2466119;27;45259;-92
2022/04/17 00:11:38;;;;;;;;;4.00;3.00;;;;;15.34;42.58;102447.06;2451546;28;46528;-93
2022/04/17 00:12:49;;;;;;;;;4.50;3.00;;;;;15.28;41.61;102446.31;2456916;27;45429;-92
2022/04/17 00:13:59;;;;;;;;;4.00;3.00;;;;;15.27;41.98;102449.88;2456822;27;46160;-92
2022/04/17 00:15:10;;;;;;;;;3.75;3.75;;;;;15.25;41.23;102443.75;2451509;27;45239;-93
2022/04/17 00:16:21;;;;;;;;;5.75;4.00;;;;;15.21;42.52;102441.22;2452136;27;46228;-92
2022/04/17 00:17:31;;;;;;;;;4.00;3.00;;;;;15.20;41.44;102448.31;2451096;27;45258;-92
2022/04/17 00:18:42;;;;;;;;;3.00;3.00;;;;;15.17;41.39;102443.06;2451414;28;45399;-92
2022/04/17 00:19:52;;;;;;;;;5.50;5.00;;;;;15.14;41.33;102446.66;2457984;27;45235;-91
2022/04/17 00:21:09;;;;;;;;;4.50;4.00;;;;;15.15;41.62;102443.13;2462968;27;46269;-93
2022/04/17 00:22:19;;;;;;;;;4.25;3.50;;;;;15.14;41.78;102444.03;2466649;27;44605;-92
2022/04/17 00:23:30;;;;;;;;;6.25;4.50;;;;;15.11;42.05;102437.94;2451704;27;45246;-93
2022/04/17 00:24:41;;;;;;;;;6.00;4.00;;;;;15.12;42.46;102437.03;2457574;27;44625;-92
2022/04/17 00:25:51;;;;;;;;;4.00;2.00;;;;;15.11;41.32;102443.25;2460626;27;45269;-92
2022/04/17 00:27:02;;;;;;;;;4.50;4.50;;;;;15.10;42.16;102444.13;2458862;27;45281;-91
2022/04/17 00:28:12;;;;;;;;;5.00;5.00;;;;;15.09;42.52;102435.31;2443521;28;47351;-91
2022/04/17 00:29:22;;;;;;;;;4.50;4.00;;;;;15.09;41.41;102431.81;2451150;27;44654;-92
2022/04/17 00:30:33;;;;;;;;;4.00;4.00;;;;;15.05;42.47;102437.19;2450331;28;47074;-91
2022/04/17 00:31:43;;;;;;;;;4.00;3.25;;;;;15.05;42.41;102434.53;2452524;27;44746;-91
2022/04/17 00:32:53;;;;;;;;;6.00;3.50;;;;;15.06;43.05;102438.06;2457085;27;46617;-92
2022/04/17 00:34:04;;;;;;;;;3.25;3.25;;;;;15.06;42.00;102444.22;2458354;27;45246;-91
2022/04/17 00:35:14;;;;;;;;;4.75;4.75;;;;;15.06;41.91;102427.47;2443206;28;46959;-91
2022/04/17 00:36:24;;;;;;;;;3.75;3.00;;;;;15.03;42.40;102433.72;2450608;28;45517;-91
2022/04/17 00:37:35;;;;;;;;;3.00;3.00;;;;;15.03;42.68;102435.47;2457472;27;45421;-91
2022/04/17 00:38:46;;;;;;;;;5.50;4.50;;;;;15.02;42.20;102431.97;2457633;27;44692;-91
2022/04/17 00:39:56;;;;;;;;;5.75;4.00;;;;;15.03;42.39;102428.41;2443487;28;46236;-92
2022/04/17 00:41:07;;;;;;;;;3.50;3.50;;;;;15.03;42.15;102427.53;2456486;27;45499;-92
2022/04/17 00:42:17;;;;;;;;;6.75;4.75;;;;;15.00;41.96;102425.84;2450681;27;47971;-92
2022/04/17 00:43:30;;;;;;;;;5.00;4.25;;;;;14.98;41.44;102430.31;2463314;27;45230;-91
2022/04/17 00:44:40;;;;;;;;;5.00;5.00;;;;;14.95;41.32;102427.72;2460563;27;45399;-91
2022/04/17 00:45:53;;;;;;;;;5.00;4.00;;;;;14.88;41.22;102426.13;2453339;27;45200;-90
2022/04/17 00:47:05;;;;;;;;;2.75;2.75;;;;;14.82;41.46;102421.81;2460643;27;45505;-91
2022/04/17 00:48:15;;;;;;;;;5.75;4.00;;;;;14.81;41.44;102428.91;2451346;27;45222;-90
2022/04/17 00:49:25;;;;;;;;;6.00;4.25;;;;;14.81;42.50;102425.38;2450282;28;46959;-92
2022/04/17 00:50:36;;;;;;;;;4.50;3.75;;;;;14.81;42.21;102428.03;2445534;27;45429;-92
2022/04/17 00:51:47;;;;;;;;;7.25;6.75;;;;;14.81;42.15;102428.91;2452621;27;46074;-91
2022/04/17 00:52:57;;;;;;;;;5.00;4.75;;;;;14.80;42.78;102424.50;2459697;27;44741;-92
2022/04/17 00:54:09;;;;;;;;;4.00;4.00;;;;;14.82;42.31;102427.09;2456247;27;46281;-91
2022/04/17 00:55:19;;;;;;;;;5.00;5.00;;;;;14.79;42.08;102417.47;2451232;28;45160;-90
2022/04/17 00:56:34;;;;;;;;;5.25;5.00;;;;;14.78;41.79;102418.38;2450585;27;48033;-91
2022/04/17 00:57:44;;;;;;;;;8.75;7.00;;;;;14.77;41.91;102421.94;2460507;27;45211;-91
2022/04/17 00:58:55;;;;;;;;;10.25;7.50;;;;;14.78;41.71;102423.69;2453174;27;47320;-91
2022/04/17 01:00:06;;;;;;;;;11.00;6.00;;;;;14.78;41.98;102422.81;2450682;28;45293;-92
2022/04/17 01:01:16;;;;;;;;;7.50;7.25;;;;;14.80;42.24;102410.41;2459757;27;46476;-92
2022/04/17 01:02:27;;;;;;;;;18.00;15.25;;;;;14.81;42.39;102420.09;2455196;27;45319;-91
2022/04/17 01:03:37;;;;;;;;;13.50;9.50;;;;;14.79;42.33;102420.09;2459669;27;47556;-91
2022/04/17 01:04:48;;;;;;;;;16.25;12.75;;;;;14.80;43.03;102415.69;2464199;27;45394;-91
2022/04/17 01:06:00;;;;;;;;;21.00;18.25;;;;;14.78;42.79;102421.03;2449900;28;46478;-91
2022/04/17 01:07:11;;;;;;;;;23.00;19.00;;;;;14.76;42.34;102419.34;2443534;28;45207;-91
2022/04/17 01:08:21;;;;;;;;;24.25;17.75;;;;;14.75;42.29;102415.81;2444875;27;47996;-90
2022/04/17 01:09:33;;;;;;;;;30.25;22.75;;;;;14.72;42.07;102410.56;2453570;27;45197;-91
2022/04/17 01:10:44;;;;;;;;;24.50;16.50;;;;;14.71;42.87;102407.09;2464371;27;48165;-90
2022/04/17 01:11:55;;;;;;;;;16.50;15.25;;;;;14.70;42.03;102409.75;2452521;27;45440;-92
2022/04/17 01:13:08;;;;;;;;;17.75;15.25;;;;;14.66;42.28;102414.25;2455123;27;45456;-91
2022/04/17 01:14:20;;;;;;;;;21.75;17.50;;;;;14.65;42.73;102416.94;2450248;28;45211;-92
2022/04/17 01:15:32;;;;;;;;;53.25;40.75;;;;;14.62;42.45;102410.81;2450710;27;48144;-91
2022/04/17 01:16:43;;;;;;;;;94.00;81.25;;;;;14.60;42.27;102417.91;2451577;27;45459;-91
2022/04/17 01:17:55;;;;;;;;;68.25;47.50;;;;;14.56;41.89;102420.66;2450800;27;46076;-90
2022/04/17 01:19:13;;;;;;;;;71.00;53.00;;;;;14.50;41.92;102413.72;2450989;28;45276;-91
2022/04/17 01:20:23;;;;;;;;;30.00;23.25;;;;;14.50;42.27;102413.72;2450833;27;46170;-92
2022/04/17 01:21:34;;;;;;;;;56.00;42.75;;;;;14.48;43.39;102415.53;2452640;27;44803;-91
2022/04/17 01:22:48;;;;;;;;;47.00;36.75;;;;;14.47;43.17;102412.03;2450940;28;45167;-92
2022/04/17 01:27:01;;;;;;;;;23.00;16.50;;;;;14.42;43.29;102405.13;2457003;27;45160;-91
2022/04/17 01:28:12;;;;;;;;;21.75;19.25;;;;;14.43;43.32;102407.72;2460578;27;45315;-92
2022/04/17 01:29:30;;;;;;;;;19.25;16.25;;;;;14.42;43.78;102405.13;2458873;27;44855;-91
2022/04/17 01:30:40;;;;;;;;;12.00;10.00;;;;;14.40;43.87;102402.47;2453542;27;48444;-91
2022/04/17 01:31:52;;;;;;;;;15.50;13.25;;;;;14.38;43.45;102405.19;2449848;28;45235;-91
2022/04/17 01:33:03;;;;;;;;;14.00;10.75;;;;;14.35;43.88;102394.66;2450245;28;46008;-92
2022/04/17 01:34:17;;;;;;;;;8.75;8.75;;;;;14.35;44.12;102393.78;2450312;27;45332;-91
2022/04/17 01:35:27;;;;;;;;;8.25;7.50;;;;;14.31;43.90;102395.63;2450180;28;46550;-91
2022/04/17 01:36:38;;;;;;;;;9.00;6.50;;;;;14.30;43.77;102385.94;2455787;27;45273;-91
2022/04/17 01:37:49;;;;;;;;;7.50;6.25;;;;;14.28;44.20;102396.56;2460684;27;46270;-91
2022/04/17 01:38:59;;;;;;;;;6.50;6.50;;;;;14.26;44.40;102393.09;2460866;27;45236;-91
2022/04/17 01:40:10;;;;;;;;;7.50;6.00;;;;;14.23;44.06;102395.81;2460624;27;45234;-92
2022/04/17 01:41:20;;;;;;;;;5.25;5.25;;;;;14.21;44.30;102397.63;2456544;27;45333;-91
2022/04/17 01:42:31;;;;;;;;;6.00;6.00;;;;;14.18;44.07;102393.25;2455774;27;45590;-90
2022/04/17 01:43:41;;;;;;;;;4.00;4.00;;;;;14.17;44.47;102395.94;2451045;27;45206;-91
2022/04/17 01:44:51;;;;;;;;;6.50;6.00;;;;;14.13;44.25;102395.13;2450711;27;46073;-92
2022/04/17 01:46:02;;;;;;;;;5.00;5.00;;;;;14.10;44.56;102394.34;2458266;27;45471;-92
2022/04/17 01:47:12;;;;;;;;;4.25;4.25;;;;;14.07;44.84;102385.53;2460742;27;47123;-92
2022/04/17 01:48:22;;;;;;;;;4.25;4.25;;;;;14.03;43.38;102390.94;2457695;27;45262;-92
2022/04/17 01:49:33;;;;;;;;;5.00;4.00;;;;;14.00;44.21;102388.38;2457714;27;46979;-92
2022/04/17 01:50:44;;;;;;;;;4.00;4.00;;;;;13.97;43.99;102386.66;2452684;27;44701;-93
2022/04/17 01:51:55;;;;;;;;;4.50;3.25;;;;;13.95;43.81;102391.13;2459330;27;46914;-92
2022/04/17 01:53:05;;;;;;;;;4.25;4.25;;;;;13.94;44.36;102386.72;2450248;28;45484;-92
2022/04/17 01:54:18;;;;;;;;;3.25;3.25;;;;;13.91;44.65;102394.72;2456729;27;46557;-91
2022/04/17 01:55:29;;;;;;;;;4.00;4.00;;;;;13.89;44.72;102391.22;2457678;27;45282;-91
2022/04/17 01:56:40;;;;;;;;;3.50;3.50;;;;;13.89;44.65;102393.88;2449836;28;46079;-91
2022/04/17 01:57:51;;;;;;;;;4.75;4.75;;;;;13.86;45.17;102391.28;2452424;27;45265;-90
2022/04/17 01:59:03;;;;;;;;;3.25;3.25;;;;;13.84;44.98;102388.69;2444839;28;46419;-92
2022/04/17 02:00:13;;;;;;;;;4.00;4.00;;;;;13.81;45.15;102391.38;2452707;27;45345;-91
2022/04/17 02:01:23;;;;;;;;;4.00;4.00;;;;;13.80;45.21;102400.22;2459810;27;47227;-92
2022/04/17 02:02:34;;;;;;;;;4.00;4.00;;;;;13.75;45.34;102397.69;2459529;27;44676;-92
2022/04/17 02:03:44;;;;;;;;;3.00;3.00;;;;;13.72;44.86;102392.44;2459746;27;45894;-92
2022/04/17 02:04:55;;;;;;;;;5.00;5.00;;;;;13.72;45.37;102400.38;2450369;27;44763;-92
2022/04/17 02:06:05;;;;;;;;;5.00;4.00;;;;;13.69;45.75;102395.16;2452667;27;48013;-93
2022/04/17 02:07:15;;;;;;;;;4.75;3.25;;;;;13.65;45.66;102388.19;2457002;27;44674;-92
2022/04/17 02:08:29;;;;;;;;;5.25;3.75;;;;;13.64;45.86;102392.59;2460076;27;45343;-94
2022/04/17 02:09:40;;;;;;;;;4.00;4.00;;;;;13.62;46.01;102391.75;2460887;27;45226;-94
2022/04/17 02:10:50;;;;;;;;;4.75;4.75;;;;;13.58;45.32;102396.22;2465378;27;48239;-93
2022/04/17 02:12:00;;;;;;;;;6.00;4.50;;;;;13.56;45.90;102392.72;2463018;27;45255;-92
2022/04/17 02:13:11;;;;;;;;;3.00;3.00;;;;;13.55;45.87;102395.38;2465052;27;46551;-94
2022/04/17 02:14:22;;;;;;;;;3.50;3.50;;;;;13.50;45.72;102390.19;2450985;27;44619;-93
2022/04/17 02:15:33;;;;;;;;;7.00;3.00;;;;;13.48;45.49;102392.00;2454067;27;46181;-94
2022/04/17 02:16:43;;;;;;;;;6.00;4.00;;;;;13.48;45.61;102386.72;2453084;27;45287;-93
2022/04/17 02:17:53;;;;;;;;;4.00;3.00;;;;;13.45;45.57;102386.75;2452927;27;47508;-93
2022/04/17 02:19:04;;;;;;;;;5.25;4.00;;;;;13.44;45.84;102385.88;2446823;28;44849;-94
2022/04/17 02:20:14;;;;;;;;;4.00;4.00;;;;;13.40;45.37;102384.22;2460016;27;48012;-93
2022/04/17 02:21:25;;;;;;;;;6.25;3.25;;;;;13.39;45.58;102387.75;2463972;27;44618;-93
2022/04/17 02:22:35;;;;;;;;;5.50;3.75;;;;;13.36;44.89;102385.16;2458956;27;46967;-94
2022/04/17 02:23:46;;;;;;;;;2.50;1.00;;;;;13.34;45.61;102385.19;2454655;27;45329;-93
2022/04/17 02:24:56;;;;;;;;;1.75;1.00;;;;;13.31;46.07;102384.38;2454497;27;46983;-92
2022/04/17 02:26:06;;;;;;;;;5.75;5.00;;;;;13.28;45.97;102380.88;2454841;27;45337;-94
2022/04/17 02:27:17;;;;;;;;;5.00;5.00;;;;;13.28;46.38;102383.50;2447706;28;46840;-94
2022/04/17 02:28:29;;;;;;;;;5.75;4.00;;;;;13.25;45.66;102378.31;2455161;27;45512;-94
2022/04/17 02:29:39;;;;;;;;;3.50;3.50;;;;;13.25;45.82;102377.44;2451828;28;47537;-93
2022/04/17 02:30:50;;;;;;;;;3.25;3.25;;;;;13.21;46.11;102373.97;2451947;27;44629;-94
2022/04/17 02:32:00;;;;;;;;;6.50;5.00;;;;;13.20;46.18;102371.38;2455064;27;47105;-93
2022/04/17 02:33:10;;;;;;;;;8.00;5.50;;;;;13.19;45.97;102370.47;2452067;28;45288;-93
2022/04/17 02:34:21;;;;;;;;;4.25;4.25;;;;;13.17;45.90;102377.56;2461084;27;45312;-94
2022/04/17 02:35:31;;;;;;;;;8.50;5.50;;;;;13.14;45.70;102367.06;2461612;27;45246;-94
2022/04/17 02:36:41;;;;;;;;;6.50;3.50;;;;;13.11;45.85;102373.25;2452957;27;47346;-92
2022/04/17 02:37:52;;;;;;;;;5.25;4.00;;;;;13.11;45.75;102364.50;2444862;28;45339;-93
2022/04/17 02:39:02;;;;;;;;;6.50;4.00;;;;;13.08;44.86;102373.34;2451764;27;46363;-93
2022/04/17 02:40:13;;;;;;;;;4.00;4.00;;;;;13.10;45.53;102370.66;2454634;27;45318;-93
2022/04/17 02:41:23;;;;;;;;;3.25;3.25;;;;;13.08;45.83;102367.19;2461638;27;48039;-93
2022/04/17 02:42:33;;;;;;;;;4.25;3.50;;;;;13.06;45.74;102367.22;2453200;27;45247;-94
2022/04/17 02:43:44;;;;;;;;;6.50;5.25;;;;;13.04;44.41;102361.06;2459642;27;48141;-94
2022/04/17 02:44:54;;;;;;;;;3.25;3.25;;;;;13.02;44.86;102357.59;2451636;28;45225;-92
2022/04/17 02:46:04;;;;;;;;;4.00;4.00;;;;;12.99;45.10;102358.50;2454252;27;47244;-92
2022/04/17 02:48:44;;;;;;;;;5.25;4.00;;;;;12.98;43.45;102354.13;2460450;27;45878;-94
2022/04/17 02:49:54;;;;;;;;;4.75;3.00;;;;;12.94;43.72;102357.72;2452318;27;45416;-93
2022/04/17 02:51:05;;;;;;;;;3.00;3.00;;;;;12.91;43.76;102363.06;2451453;28;47012;-93
2022/04/17 02:52:15;;;;;;;;;4.00;3.25;;;;;12.91;43.45;102360.41;2462469;27;45236;-92
2022/04/17 02:53:26;;;;;;;;;3.75;3.75;;;;;12.91;43.75;102360.41;2456935;27;47251;-94
2022/04/17 02:54:38;;;;;;;;;4.00;4.00;;;;;12.90;43.29;102356.03;2454296;27;45282;-94
2022/04/17 02:55:48;;;;;;;;;3.75;3.25;;;;;12.92;44.03;102352.47;2451306;28;48300;-92
2022/04/17 02:56:58;;;;;;;;;5.25;4.25;;;;;12.93;44.15;102355.97;2444748;28;44574;-92
2022/04/17 02:58:10;;;;;;;;;4.25;3.00;;;;;12.94;44.35;102355.06;2448314;27;46875;-93
2022/04/17 02:59:20;;;;;;;;;5.50;5.50;;;;;12.93;43.87;102353.34;2461576;27;45250;-94
2022/04/17 03:00:31;;;;;;;;;7.00;4.00;;;;;12.94;43.96;102349.78;2454186;27;47113;-93
2022/04/17 03:06:10;;;;;;;;;3.50;3.25;;;;;12.91;43.92;102349.88;2451943;28;45747;-92
2022/04/17 03:07:21;;;;;;;;;4.00;4.00;;;;;12.91;42.82;102341.94;2461405;27;44597;-92
2022/04/17 03:08:31;;;;;;;;;8.00;6.00;;;;;12.93;43.96;102342.78;2454094;27;47197;-94
2022/04/17 03:09:41;;;;;;;;;3.50;3.50;;;;;12.93;43.69;102342.78;2452868;27;45153;-93
2022/04/17 03:10:52;;;;;;;;;7.50;5.25;;;;;12.94;43.29;102336.59;2459653;27;46912;-93
2022/04/17 03:12:03;;;;;;;;;6.75;4.00;;;;;12.92;43.95;102336.63;2461905;27;45275;-93
2022/04/17 03:13:14;;;;;;;;;3.75;3.00;;;;;12.92;43.95;102336.63;2454030;27;47166;-93
2022/04/17 03:14:25;;;;;;;;;5.25;5.25;;;;;12.94;43.64;102340.13;2454379;27;45252;-94
2022/04/17 03:15:38;;;;;;;;;4.00;3.75;;;;;12.92;43.60;102334.00;2453788;27;48205;-94
2022/04/17 03:16:48;;;;;;;;;3.25;3.00;;;;;12.93;43.85;102333.13;2454489;27;44711;-93
2022/04/17 03:17:59;;;;;;;;;3.75;3.75;;;;;12.93;43.78;102340.16;2461292;27;46286;-92
2022/04/17 03:19:10;;;;;;;;;4.00;3.25;;;;;12.93;43.38;102333.13;2460042;27;45717;-93
2022/04/17 03:20:20;;;;;;;;;6.00;4.50;;;;;12.93;43.90;102338.38;2453791;27;47163;-94
2022/04/17 03:21:31;;;;;;;;;4.00;4.00;;;;;12.94;44.32;102333.97;2460392;27;45296;-94
2022/04/17 03:22:42;;;;;;;;;4.00;4.00;;;;;12.93;44.20;102332.22;2451386;28;46226;-92
2022/04/17 03:23:52;;;;;;;;;5.25;3.75;;;;;12.92;44.27;102330.47;2458833;27;45231;-94
2022/04/17 03:25:06;;;;;;;;;5.50;4.00;;;;;12.92;43.43;102327.84;2461099;27;48279;-93
2022/04/17 03:26:16;;;;;;;;;3.50;3.50;;;;;12.90;44.48;102329.63;2454722;27;45288;-94
2022/04/17 03:27:28;;;;;;;;;3.25;3.00;;;;;12.90;43.81;102332.28;2451382;28;46998;-93
2022/04/17 03:28:38;;;;;;;;;5.25;4.00;;;;;12.86;44.44;102320.91;2457704;27;45268;-94
2022/04/17 03:29:49;;;;;;;;;4.00;4.00;;;;;12.86;44.58;102326.19;2459832;27;48014;-93
2022/04/17 03:30:59;;;;;;;;;2.75;2.75;;;;;12.86;44.06;102326.19;2458704;27;44611;-94
2022/04/17 03:32:09;;;;;;;;;4.50;3.75;;;;;12.86;43.88;102325.31;2458410;27;46975;-94
2022/04/17 03:33:20;;;;;;;;;5.00;4.00;;;;;12.83;43.80;102332.41;2454280;27;45423;-93
2022/04/17 03:34:30;;;;;;;;;4.50;4.50;;;;;12.81;42.97;102322.75;2454151;27;47126;-93
2022/04/17 03:35:41;;;;;;;;;4.00;4.00;;;;;12.78;43.93;102328.09;2444295;28;45198;-94
2022/04/17 03:36:51;;;;;;;;;6.50;4.75;;;;;12.78;43.63;102328.09;2451484;27;47276;-92
2022/04/17 03:38:02;;;;;;;;;7.00;4.00;;;;;12.75;43.88;102323.72;2446833;27;45212;-94
2022/04/17 03:39:12;;;;;;;;;6.50;6.50;;;;;12.73;43.63;102320.25;2454126;27;46941;-94
2022/04/17 03:40:22;;;;;;;;;5.50;4.00;;;;;12.71;43.34;102330.84;2454126;27;45298;-94
2022/04/17 03:41:34;;;;;;;;;5.25;5.25;;;;;12.70;43.69;102323.81;2449185;28;47198;-92
2022/04/17 03:42:45;;;;;;;;;4.00;4.00;;;;;12.70;43.87;102317.66;2445842;27;45342;-93
2022/04/17 03:43:56;;;;;;;;;3.00;3.00;;;;;12.70;43.90;102317.66;2453895;27;47096;-93
2022/04/17 03:45:15;;;;;;;;;4.00;4.00;;;;;12.67;42.65;102309.78;2454131;27;45336;-94
2022/04/17 03:46:25;;;;;;;;;4.00;4.00;;;;;12.67;43.47;102322.97;2464785;27;48356;-94
2022/04/17 03:47:35;;;;;;;;;7.00;5.00;;;;;12.65;43.36;102322.13;2457666;27;44702;-93
2022/04/17 03:48:46;;;;;;;;;5.50;5.50;;;;;12.66;43.76;102321.25;2451170;28;47084;-93
2022/04/17 03:49:56;;;;;;;;;3.00;3.00;;;;;12.64;43.54;102323.03;2451265;28;44602;-94
2022/04/17 03:51:06;;;;;;;;;5.25;5.25;;;;;12.63;43.31;102324.81;2449690;27;47162;-93
2022/04/17 03:52:17;;;;;;;;;5.25;4.50;;;;;12.60;43.18;102319.56;2453229;27;45301;-94
2022/04/17 03:53:27;;;;;;;;;9.25;7.00;;;;;12.61;43.51;102326.59;2453962;27;47911;-93
2022/04/17 03:54:38;;;;;;;;;4.00;4.00;;;;;12.58;43.42;102330.16;2461255;27;44612;-93
2022/04/17 03:55:48;;;;;;;;;6.00;5.25;;;;;12.57;43.55;102319.63;2461044;27;46859;-93
2022/04/17 03:56:58;;;;;;;;;3.00;3.00;;;;;12.57;43.26;102328.41;2454018;27;45231;-92
2022/04/17 03:58:09;;;;;;;;;4.75;4.00;;;;;12.56;43.53;102331.06;2451268;27;47209;-92
2022/04/17 03:59:19;;;;;;;;;9.00;6.75;;;;;12.54;42.83;102324.97;2453964;27;45180;-93
2022/04/17 04:00:29;;;;;;;;;4.00;3.75;;;;;12.54;43.58;102328.47;2467103;27;45400;-94
2022/04/17 04:01:40;;;;;;;;;5.00;3.25;;;;;12.53;43.92;102323.19;2456945;27;45233;-92
2022/04/17 04:02:51;;;;;;;;;4.75;4.75;;;;;12.52;43.69;102324.97;2451124;27;47614;-93
2022/04/17 04:04:01;;;;;;;;;4.75;4.75;;;;;12.53;43.80;102326.72;2453809;27;45389;-93
2022/04/17 04:05:12;;;;;;;;;5.00;4.50;;;;;12.53;42.85;102320.56;2458005;27;48168;-93
2022/04/17 04:06:22;;;;;;;;;7.25;6.00;;;;;12.49;43.16;102323.25;2458505;27;45307;-93
2022/04/17 04:07:32;;;;;;;;;4.50;4.50;;;;;12.48;42.98;102320.63;2460795;27;47216;-94
2022/04/17 04:08:43;;;;;;;;;6.75;5.25;;;;;12.48;43.59;102321.53;2458675;27;44812;-94
2022/04/17 04:09:53;;;;;;;;;4.75;4.25;;;;;12.48;43.75;102320.63;2457079;27;48062;-93
2022/04/17 04:11:04;;;;;;;;;4.00;4.00;;;;;12.47;43.80;102318.91;2443953;28;45316;-93
2022/04/17 04:12:14;;;;;;;;;8.00;6.75;;;;;12.46;44.09;102317.16;2453748;27;47052;-92
2022/04/17 04:13:25;;;;;;;;;6.25;5.00;;;;;12.45;42.70;102313.66;2450950;28;44724;-94
2022/04/17 04:14:36;;;;;;;;;5.25;5.25;;;;;12.43;42.64;102314.56;2451111;27;48214;-94
2022/04/17 04:15:46;;;;;;;;;5.50;5.50;;;;;12.40;42.72;102314.59;2453604;27;44694;-93
2022/04/17 04:16:56;;;;;;;;;4.00;4.00;;;;;12.37;44.15;102313.75;2453605;27;46929;-93
2022/04/17 04:18:07;;;;;;;;;6.00;5.25;;;;;12.37;43.75;102321.66;2453261;27;45480;-93
2022/04/17 04:19:17;;;;;;;;;5.25;5.25;;;;;12.35;43.57;102312.91;2451050;28;47064;-93
2022/04/17 04:20:27;;;;;;;;;5.50;5.50;;;;;12.35;42.86;102315.56;2453693;27;45236;-93
2022/04/17 04:21:47;;;;;;;;;5.25;4.00;;;;;12.35;42.61;102312.03;2463292;27;48188;-92
2022/04/17 04:22:57;;;;;;;;;10.75;5.75;;;;;12.33;43.55;102316.47;2454059;27;45318;-94
2022/04/17 04:24:07;;;;;;;;;6.75;6.75;;;;;12.32;43.14;102315.59;2446859;27;47003;-93
2022/04/17 04:25:18;;;;;;;;;5.50;5.25;;;;;12.32;43.16;102320.03;2451088;28;45314;-93
2022/04/17 04:26:30;;;;;;;;;6.75;4.00;;;;;12.30;42.83;102312.09;2444210;28;48047;-93
2022/04/17 04:29:10;;;;;;;;;5.75;5.50;;;;;12.27;42.58;102307.75;2461093;27;45254;-94
2022/04/17 04:30:20;;;;;;;;;4.00;4.00;;;;;12.29;42.53;102310.38;2451872;27;45428;-94
2022/04/17 04:31:31;;;;;;;;;4.00;4.00;;;;;12.29;43.41;102312.16;2443743;28;46852;-92
2022/04/17 04:32:53;;;;;;;;;4.25;4.00;;;;;12.29;43.85;102310.38;2453762;27;45206;-94
2022/04/17 04:34:03;;;;;;;;;5.25;5.25;;;;;12.28;43.06;102306.00;2446556;28;47113;-94
2022/04/17 04:35:14;;;;;;;;;4.25;4.00;;;;;12.29;43.08;102309.50;2459892;27;45412;-93
2022/04/17 04:36:24;;;;;;;;;6.00;5.25;;;;;12.29;42.65;102305.13;2453327;27;47909;-94
2022/04/17 04:37:34;;;;;;;;;6.75;5.25;;;;;12.27;42.32;102309.53;2453510;27;44684;-93
2022/04/17 04:38:45;;;;;;;;;6.75;5.50;;;;;12.24;42.39;102307.81;2453437;27;46966;-94
2022/04/17 04:39:56;;;;;;;;;5.25;5.25;;;;;12.24;42.80;102313.09;2461087;27;45276;-93
2022/04/17 04:41:07;;;;;;;;;5.25;4.00;;;;;12.21;42.98;102307.84;2460560;27;47383;-94
2022/04/17 04:42:21;;;;;;;;;4.00;4.00;;;;;12.23;42.90;102306.06;2450478;28;44820;-95
2022/04/17 04:43:32;;;;;;;;;6.00;3.25;;;;;12.24;43.71;102307.81;2450244;28;47108;-95
2022/04/17 04:44:42;;;;;;;;;7.75;5.75;;;;;12.24;43.03;102306.94;2453472;27;45282;-94
2022/04/17 04:46:08;;;;;;;;;8.00;5.50;;;;;12.25;43.55;102306.91;2447604;28;46869;-94
2022/04/17 04:47:18;;;;;;;;;5.75;3.75;;;;;12.26;43.19;102307.78;2451049;28;45251;-94
2022/04/17 04:49:58;;;;;;;;;7.00;4.25;;;;;12.24;42.75;102310.47;2451450;28;45223;-93
2022/04/17 04:51:08;;;;;;;;;5.25;5.25;;;;;12.25;43.22;102308.66;2452229;27;48038;-93
2022/04/17 04:52:21;;;;;;;;;6.25;5.50;;;;;12.23;42.90;102307.81;2463666;27;44634;-94
2022/04/17 04:53:32;;;;;;;;;7.50;7.00;;;;;12.24;43.29;102306.94;2452337;27;47061;-94
2022/04/17 04:54:42;;;;;;;;;5.00;4.25;;;;;12.21;43.99;102310.50;2450796;28;44599;-93
2022/04/17 04:55:54;;;;;;;;;6.00;4.00;;;;;12.21;44.02;102307.84;2453611;27;46994;-93
2022/04/17 04:57:07;;;;;;;;;7.75;4.00;;;;;12.22;43.92;102319.28;2457801;27;45275;-94
2022/04/17 04:58:17;;;;;;;;;7.00;6.00;;;;;12.22;44.16;102308.75;2457813;27;47364;-94
2022/04/17 04:59:27;;;;;;;;;7.00;5.25;;;;;12.21;44.16;102317.53;2463064;27;45319;-93
2022/04/17 05:00:38;;;;;;;;;7.50;5.25;;;;;12.19;44.18;102308.78;2460695;27;47223;-94
2022/04/17 05:01:48;;;;;;;;;4.00;4.00;;;;;12.19;44.50;102321.97;2453650;27;45165;-93
2022/04/17 05:02:59;;;;;;;;;4.00;4.00;;;;;12.16;44.52;102314.97;2453575;27;46929;-94
2022/04/17 05:04:09;;;;;;;;;8.00;6.75;;;;;12.15;43.99;102313.19;2462507;27;45192;-94
2022/04/17 05:05:19;;;;;;;;;5.75;5.75;;;;;12.12;44.47;102313.25;2450725;28;47079;-94
2022/04/17 05:06:30;;;;;;;;;6.50;5.50;;;;;12.10;44.36;102313.25;2457663;27;44925;-94
2022/04/17 05:07:40;;;;;;;;;8.75;7.25;;;;;12.08;44.70;102317.66;2450528;28;46907;-94
2022/04/17 05:08:50;;;;;;;;;6.75;5.50;;;;;12.06;45.21;102319.47;2444914;27;44600;-93
2022/04/17 05:10:01;;;;;;;;;9.25;8.25;;;;;12.03;45.26;102319.50;2453631;27;47199;-95
2022/04/17 05:11:11;;;;;;;;;9.00;9.00;;;;;12.01;45.16;102316.00;2456190;27;44671;-93
2022/04/17 05:12:22;;;;;;;;;11.75;10.75;;;;;11.99;45.22;102320.44;2449925;28;47280;-93
2022/04/17 05:13:32;;;;;;;;;10.50;8.50;;;;;11.97;45.08;102314.31;2456765;27;44754;-94
2022/04/17 05:14:44;;;;;;;;;19.25;14.25;;;;;11.93;44.67;102322.25;2460735;27;47023;-93
2022/04/17 05:15:54;;;;;;;;;19.25;16.75;;;;;11.91;45.27;102316.13;2457619;27;45464;-94
2022/04/17 05:17:05;;;;;;;;;18.25;15.25;;;;;11.89;45.44;102323.19;2450704;28;47079;-93
2022/04/17 05:18:15;;;;;;;;;20.25;16.50;;;;;11.87;45.57;102317.09;2453399;27;44687;-93
2022/04/17 05:19:27;;;;;;;;;20.25;17.00;;;;;11.85;45.60;102321.50;2450515;28;47352;-94
2022/04/17 05:20:38;;;;;;;;;23.50;16.75;;;;;11.82;46.20;102325.03;2455202;27;45263;-94
2022/04/17 05:21:48;;;;;;;;;21.75;17.75;;;;;11.81;45.70;102327.69;2453171;27;47384;-93
2022/04/17 05:23:15;;;;;;;;;17.50;15.00;;;;;11.81;45.66;102330.31;2453463;27;45258;-93
2022/04/17 05:24:26;;;;;;;;;18.75;17.00;;;;;11.77;45.72;102334.75;2456230;27;47532;-93
2022/04/17 05:25:36;;;;;;;;;19.50;19.25;;;;;11.75;46.01;102333.03;2453298;27;45368;-93
2022/04/17 05:26:46;;;;;;;;;18.25;13.50;;;;;11.73;46.13;102334.81;2450276;28;47134;-93
2022/04/17 05:27:57;;;;;;;;;17.00;16.50;;;;;11.70;45.61;102333.94;2450816;27;45291;-92
2022/04/17 05:29:07;;;;;;;;;16.50;14.25;;;;;11.69;46.35;102334.84;2453045;27;47125;-93
2022/04/17 05:30:17;;;;;;;;;13.25;13.25;;;;;11.70;46.15;102339.22;2454185;27;45428;-94
2022/04/17 05:31:28;;;;;;;;;11.25;9.75;;;;;11.68;45.78;102335.72;2451772;28;46983;-93
2022/04/17 05:32:39;;;;;;;;;14.50;10.00;;;;;11.66;45.46;102337.50;2460301;27;45277;-94
2022/04/17 05:33:49;;;;;;;;;10.50;10.25;;;;;11.66;45.37;102334.00;2452895;27;48004;-93
2022/04/17 05:34:59;;;;;;;;;14.75;9.25;;;;;11.65;45.54;102340.19;2460958;27;44797;-94
2022/04/17 05:36:09;;;;;;;;;9.25;9.25;;;;;11.63;46.01;102336.69;2458965;27;47187;-94
2022/04/17 05:37:20;;;;;;;;;7.75;7.50;;;;;11.61;45.97;102334.06;2443569;28;45230;-92
2022/04/17 05:38:30;;;;;;;;;3.75;3.00;;;;;11.61;44.87;102341.97;2450232;27;47862;-94
2022/04/17 05:39:41;;;;;;;;;6.50;6.50;;;;;11.58;45.41;102344.66;2450467;28;44680;-93
2022/04/17 05:40:52;;;;;;;;;8.50;6.75;;;;;11.59;45.72;102335.84;2453292;27;46999;-94